Time;durP1;ratioP1;P1;durP2;ratioP2;P2;SDS_P1;SDS_P2;PMS_P1;PMS_P2;Temp;Humidity;BMP_temperature;BMP_pressure;BME280_temperature;BME280_humidity;BME280_pressure;Samples;Min_cycle;Max_cycle;Signal;HPM_P1;HPM_P2
2023/04/03 07:01:27;;;;;;;2.77;1.80;;;7.70;99.90;10.20;102782.00;;;;6308845;22;20671;-71
2023/04/03 07:03:58;;;;;;;2.27;0.57;;;8.60;99.90;10.00;102839.00;;;;6282768;22;20148;-71
2023/04/03 07:06:26;;;;;;;3.60;1.97;;;8.00;99.90;7.70;102764.00;;;;6282368;22;20529;-73
2023/04/03 07:08:52;;;;;;;0.50;0.50;;;7.30;99.90;9.50;102815.00;;;;6282939;22;20179;-73
2023/04/03 07:11:18;;;;;;;2.43;1.60;;;7.40;99.90;11.20;102841.00;;;;6309119;22;20470;-71
2023/04/03 07:13:57;;;;;;;1.07;1.03;;;8.20;99.90;11.60;102793.00;;;;6282362;22;20225;-71
2023/04/03 07:16:33;;;;;;;0.20;0.20;;;9.10;99.90;12.50;102868.00;;;;6281629;22;20222;-74
2023/04/03 07:18:59;;;;;;;4.00;1.10;;;9.70;99.90;12.30;102831.00;;;;6257109;22;20152;-74
2023/04/03 07:21:25;;;;;;;0.40;0.40;;;10.20;99.90;12.20;102907.00;;;;6281481;22;20171;-72
2023/04/03 07:23:51;;;;;;;1.40;1.23;;;9.70;99.90;10.80;102903.00;;;;6280631;22;20228;-72
2023/04/03 07:26:25;;;;;;;0.10;0.10;;;9.50;99.90;11.70;102890.00;;;;6281939;22;20147;-74
2023/04/03 07:29:11;;;;;;;0.83;0.83;;;9.10;99.90;14.10;102855.00;;;;6257767;22;20245;-75
2023/04/03 07:31:41;;;;;;;0.10;0.10;;;10.40;99.90;13.40;102879.00;;;;6281852;22;20183;-74
2023/04/03 07:34:25;;;;;;;0.80;0.80;;;11.10;99.90;11.50;102910.00;;;;6256614;22;20654;-74
2023/04/03 07:36:58;;;;;;;1.20;1.20;;;9.90;99.90;12.00;102919.00;;;;6281280;22;20484;-75
2023/04/03 07:39:31;;;;;;;2.00;1.47;;;10.00;99.90;9.80;102960.00;;;;6281470;22;20158;-74
2023/04/03 07:42:20;;;;;;;0.20;0.20;;;8.80;99.90;11.50;102899.00;;;;6280468;22;20173;-74
2023/04/03 07:45:12;;;;;;;0.70;0.70;;;9.20;99.90;9.90;102964.00;;;;6254754;22;20186;-74
2023/04/03 07:47:42;;;;;;;0.87;0.87;;;8.50;99.90;12.10;102929.00;;;;6282233;22;20144;-74
2023/04/03 07:50:08;;;;;;;0.47;0.47;;;9.50;99.90;12.80;102921.00;;;;6256234;22;20159;-74
2023/04/03 07:52:37;;;;;;;0.97;0.97;;;10.10;99.90;14.40;102870.00;;;;6282048;22;20154;-74
2023/04/03 07:55:07;;;;;;;1.13;0.63;;;11.00;99.90;12.90;102900.00;;;;6281666;22;20197;-74
2023/04/03 07:57:53;;;;;;;3.80;0.50;;;10.90;99.90;13.20;102905.00;;;;6281681;22;20213;-74
2023/04/03 08:00:53;;;;;;;2.43;1.33;;;10.50;99.90;9.90;102976.00;;;;6308278;22;20170;-80
2023/04/03 08:03:22;;;;;;;1.80;1.70;;;9.20;99.90;10.70;102958.00;;;;6258977;22;20170;-70
2023/04/03 08:05:53;;;;;;;1.07;1.03;;;9.10;99.90;11.90;102943.00;;;;6281613;22;20147;-71
2023/04/03 08:08:22;;;;;;;0.33;0.33;;;9.60;99.90;12.60;102926.00;;;;6309071;22;20149;-69
2023/04/03 08:10:54;;;;;;;1.47;1.17;;;10.30;99.90;12.40;102934.00;;;;6280665;22;20145;-72
2023/04/03 08:13:23;;;;;;;1.33;1.23;;;10.70;99.90;11.40;102982.00;;;;6253613;22;20162;-72
2023/04/03 08:16:06;;;;;;;0.60;0.60;;;9.80;99.90;12.30;102949.00;;;;6256489;22;20236;-72
2023/04/03 08:18:37;;;;;;;1.33;1.03;;;10.00;99.90;10.50;102976.00;;;;6253503;22;20583;-73
2023/04/03 08:21:21;;;;;;;1.43;1.33;;;9.10;99.90;12.00;102964.00;;;;6280548;22;20267;-73
2023/04/03 08:24:05;;;;;;;0.77;0.63;;;9.70;99.90;12.70;102884.00;;;;6281195;22;20497;-73
2023/04/03 08:26:58;;;;;;;0.77;0.63;;;10.50;99.90;13.50;102942.00;;;;6280991;22;20451;-72
2023/04/03 08:29:34;;;;;;;0.40;0.40;;;10.60;99.90;14.70;102895.00;;;;6255137;22;20525;-72
2023/04/03 08:32:06;;;;;;;0.50;0.37;;;11.30;99.90;12.70;102927.00;;;;6281606;22;20141;-71
2023/04/03 08:34:57;;;;;;;0.20;0.20;;;10.90;99.90;13.00;102924.00;;;;6231205;22;20160;-72
2023/04/03 08:37:31;;;;;;;0.73;0.73;;;11.10;99.90;12.10;102909.00;;;;6259666;22;20142;-73
2023/04/03 08:40:16;;;;;;;1.40;1.17;;;10.30;99.90;10.90;102991.00;;;;6255805;22;20233;-71
2023/04/03 08:42:52;;;;;;;0.77;0.77;;;9.50;99.90;11.50;102979.00;;;;6255118;22;20182;-72
2023/04/03 08:45:30;;;;;;;0.27;0.27;;;9.40;99.90;12.60;102946.00;;;;6255799;22;20537;-72
2023/04/03 08:48:56;;;;;;;0.70;0.70;;;10.00;99.90;11.60;102974.00;;;;6281419;22;20143;-72
2023/04/03 08:51:26;;;;;;;0.13;0.13;;;10.40;99.90;12.30;102970.00;;;;6306903;22;20242;-72
2023/04/03 08:54:30;;;;;;;0.33;0.33;;;9.90;99.90;14.00;102904.00;;;;6279294;22;20141;-72
2023/04/03 08:57:02;;;;;;;0.60;0.60;;;10.90;99.90;14.30;102861.00;;;;6255204;22;20509;-72
2023/04/03 08:59:51;;;;;;;1.17;0.87;;;11.40;99.90;13.40;102859.00;;;;6279525;22;20172;-72
2023/04/03 09:02:42;;;;;;;0.10;0.10;;;11.40;99.90;13.50;102914.00;;;;6255524;22;20184;-71
2023/04/03 09:06:03;;;;;;;0.40;0.40;;;10.90;99.90;13.50;102912.00;;;;6280145;22;20232;-71
2023/04/03 09:08:48;;;;;;;0.10;0.10;;;11.10;99.90;14.30;102912.00;;;;6255203;22;20248;-72
2023/04/03 09:12:08;;;;;;;1.03;0.80;;;11.30;99.90;12.30;102953.00;;;;6307931;22;20142;-72
2023/04/03 09:15:26;;;;;;;1.10;0.73;;;11.10;99.90;11.30;102968.00;;;;6283403;22;20565;-71
2023/04/03 09:18:19;;;;;;;1.30;1.30;;;10.20;99.90;12.90;102878.00;;;;6268336;22;20160;-72
2023/04/03 09:21:32;;;;;;;1.83;0.67;;;10.40;99.90;12.40;102936.00;;;;6280595;22;20235;-72
2023/04/03 09:24:07;;;;;;;0.20;0.20;;;10.80;99.90;12.60;102912.00;;;;6307688;22;20171;-72
2023/04/03 09:26:54;;;;;;;0.27;0.27;;;10.80;99.90;14.00;102859.00;;;;6278473;22;20593;-72
2023/04/03 09:29:49;;;;;;;0.30;0.30;;;11.20;99.90;12.40;102923.00;;;;6307776;22;20163;-72
2023/04/03 09:32:52;;;;;;;0.57;0.50;;;10.80;99.90;13.60;102928.00;;;;6280940;22;20147;-73
2023/04/03 09:39:49;;;;;;;0.10;0.10;;;11.10;99.90;14.10;102905.00;;;;6301273;22;20163;-72
2023/04/03 09:42:26;;;;;;;0.50;0.50;;;11.30;99.90;13.40;102910.00;;;;6304640;22;20234;-72
2023/04/03 09:45:36;;;;;;;1.07;0.97;;;11.40;99.90;11.90;102907.00;;;;6256101;22;20582;-72
2023/04/03 09:48:15;;;;;;;0.83;0.70;;;10.90;99.90;14.00;102922.00;;;;6262845;22;20143;-72
2023/04/03 09:50:51;;;;;;;0.30;0.30;;;10.80;99.90;14.40;102900.00;;;;6280554;22;20542;-72
2023/04/03 09:53:35;;;;;;;0.50;0.50;;;11.70;99.90;14.30;102890.00;;;;6307490;22;20141;-72
2023/04/03 09:56:22;;;;;;;1.37;0.80;;;11.80;99.90;12.70;102917.00;;;;6280278;22;20160;-72
2023/04/03 09:59:11;;;;;;;0.20;0.20;;;11.70;99.90;13.90;102902.00;;;;6307424;22;20208;-72
2023/04/03 10:02:02;;;;;;;0.40;0.40;;;11.20;99.90;13.90;102890.00;;;;6285858;22;20462;-72
2023/04/03 10:04:56;;;;;;;1.27;0.97;;;11.80;99.90;13.10;102905.00;;;;6280018;22;20226;-72
2023/04/03 10:08:17;;;;;;;0.23;0.23;;;11.50;99.90;13.80;102881.00;;;;6254952;22;20183;-72
2023/04/03 10:11:16;;;;;;;0.27;0.27;;;11.40;99.90;14.80;102841.00;;;;6280848;22;20161;-72
2023/04/03 10:14:18;;;;;;;2.67;1.03;;;11.90;99.90;15.10;102780.00;;;;6280363;22;20206;-76
2023/04/03 10:17:36;;;;;;;2.23;0.87;;;12.30;99.90;13.20;102858.00;;;;6307506;22;20181;-72
2023/04/03 10:20:26;;;;;;;0.43;0.43;;;11.80;99.90;13.70;102870.00;;;;6181247;23;20654;-70
2023/04/03 10:33:42;;;;;;;0.80;0.80;;;11.70;99.90;13.20;102857.00;;;;5069837;28;20609;-69
2023/04/03 10:36:59;;;;;;;9.90;1.23;;;11.80;99.90;13.30;102774.00;;;;5049994;28;20197;-66
2023/04/03 10:40:02;;;;;;;0.67;0.67;;;11.60;99.90;15.40;102862.00;;;;5045427;28;20634;-68
2023/04/03 10:43:07;;;;;;;1.80;1.00;;;12.40;99.90;14.40;102867.00;;;;5040323;28;20364;-64
2023/04/03 10:46:02;;;;;;;0.37;0.37;;;12.20;99.90;14.40;102849.00;;;;5046891;28;20669;-66
2023/04/03 10:49:18;;;;;;;1.27;0.50;;;12.00;99.90;14.60;102847.00;;;;5048795;28;20305;-65
2023/04/03 10:51:59;;;;;;;0.90;0.90;;;12.60;99.90;14.90;102842.00;;;;5031881;28;20213;-63
2023/04/03 10:54:40;;;;;;;0.50;0.50;;;12.80;99.90;16.40;102835.00;;;;5047722;28;20813;-76
2023/04/03 10:57:28;;;;;;;0.10;0.10;;;13.20;99.90;16.50;102883.00;;;;5048512;28;20185;-72
2023/04/03 11:00:16;;;;;;;0.30;0.30;;;13.50;99.90;14.40;102855.00;;;;5047481;28;20186;-68
2023/04/03 11:02:51;;;;;;;0.20;0.20;;;12.80;99.90;15.60;102901.00;;;;5049162;28;20216;-68
2023/04/03 11:05:47;;;;;;;0.23;0.23;;;12.50;99.90;13.60;102927.00;;;;5031263;28;20206;-68
2023/04/03 11:09:03;;;;;;;0.67;0.50;;;12.00;99.90;14.40;102899.00;;;;5048229;28;20278;-68
2023/04/03 11:11:39;;;;;;;0.20;0.20;;;11.50;99.90;13.80;102914.00;;;;5029533;28;20229;-68
2023/04/03 11:14:32;;;;;;;0.20;0.20;;;11.60;99.90;15.40;102885.00;;;;5050098;28;20647;-68
2023/04/03 11:17:23;;;;;;;0.30;0.30;;;12.60;99.90;14.40;102910.00;;;;5048151;28;20533;-68
2023/04/03 11:20:06;;;;;;;0.57;0.57;;;12.60;99.90;15.00;102850.00;;;;5049000;28;20198;-69
2023/04/03 11:22:42;;;;;;;1.80;0.87;;;12.50;99.90;14.90;102904.00;;;;5048222;28;20277;-69
2023/04/03 11:25:11;;;;;;;0.10;0.10;;;13.00;99.90;15.30;102842.00;;;;5044152;28;20183;-68
2023/04/03 11:28:01;;;;;;;1.50;0.67;;;12.70;99.90;15.80;102902.00;;;;5046436;28;20733;-69
2023/04/03 11:31:00;;;;;;;0.30;0.30;;;13.10;99.90;16.00;102903.00;;;;5046616;28;20205;-69
2023/04/03 11:34:03;;;;;;;0.40;0.30;;;13.30;99.90;14.00;102902.00;;;;5027749;28;20279;-69
2023/04/03 11:36:40;;;;;;;1.70;0.57;;;12.90;99.90;14.80;102887.00;;;;5048264;28;20197;-68
2023/04/03 11:39:54;;;;;;;0.50;0.50;;;12.30;99.90;14.40;102854.00;;;;5076759;28;20195;-68
2023/04/03 11:42:39;;;;;;;0.10;0.10;;;12.40;99.90;14.80;102889.00;;;;4990075;28;20824;-68
2023/04/03 11:45:24;;;;;;;0.43;0.40;;;12.60;99.90;14.80;102877.00;;;;5033958;28;20191;-68
2023/04/03 11:47:58;;;;;;;0.40;0.40;;;12.40;99.90;15.20;102875.00;;;;5022100;28;20284;-68
2023/04/03 11:51:29;;;;;;;0.40;0.40;;;12.80;99.90;14.40;102885.00;;;;5046189;28;20185;-69
2023/04/03 11:54:40;;;;;;;0.33;0.30;;;12.50;99.90;16.00;102866.00;;;;4990760;28;20196;-69
2023/04/03 11:58:00;;;;;;;0.97;0.80;;;12.80;99.90;13.00;102899.00;;;;4993942;28;20281;-69
2023/04/03 12:06:07;;;;;;;0.60;0.60;;;12.20;99.90;14.70;102874.00;;;;5030656;28;20212;-68
2023/04/03 12:08:32;;;;;;;1.27;1.27;;;12.20;99.90;14.10;102854.00;;;;5035233;28;20224;-68
2023/04/03 12:11:10;;;;;;;2.97;0.47;;;12.00;99.90;14.00;102851.00;;;;5034281;28;20216;-68
2023/04/03 12:13:57;;;;;;;0.73;0.50;;;11.80;99.90;13.10;102872.00;;;;5029589;28;20223;-68
2023/04/03 12:16:26;;;;;;;0.20;0.20;;;11.70;99.90;13.20;102854.00;;;;5033954;28;20188;-67
2023/04/03 12:18:55;;;;;;;1.60;0.87;;;11.40;99.90;13.30;102866.00;;;;5034146;28;20190;-68
2023/04/03 12:21:27;;;;;;;0.73;0.73;;;11.40;99.90;13.90;102843.00;;;;5034409;28;20274;-67
2023/04/03 12:24:11;;;;;;;0.40;0.40;;;11.50;99.90;14.30;102848.00;;;;5030791;28;20234;-68
2023/04/03 12:27:03;;;;;;;0.60;0.60;;;11.70;99.90;13.30;102841.00;;;;5024131;28;20547;-68
2023/04/03 12:29:47;;;;;;;1.23;0.80;;;11.50;99.90;13.20;102835.00;;;;5013030;28;20201;-68
2023/04/03 12:32:31;;;;;;;0.63;0.63;;;11.30;99.90;14.20;102835.00;;;;5031673;28;20208;-68
2023/04/03 12:35:18;;;;;;;0.20;0.20;;;11.50;99.90;14.10;102830.00;;;;5030676;28;20191;-68
2023/04/03 12:38:24;;;;;;;0.50;0.50;;;11.40;99.90;13.60;102834.00;;;;5023290;28;20197;-69
2023/04/03 12:40:56;;;;;;;0.20;0.20;;;11.70;99.90;13.70;102834.00;;;;5032885;28;20644;-70
2023/04/03 12:44:13;;;;;;;0.40;0.40;;;11.70;99.90;14.30;102832.00;;;;5034957;28;20208;-78
2023/04/03 12:46:59;;;;;;;1.30;0.30;;;11.80;99.90;14.10;102829.00;;;;5033702;28;20247;-71
2023/04/03 12:49:47;;;;;;;0.30;0.30;;;11.90;99.90;14.70;102787.00;;;;5048812;28;20685;-69
2023/04/03 12:52:49;;;;;;;0.40;0.40;;;12.00;99.90;13.30;102829.00;;;;5030494;28;20266;-66
2023/04/03 12:55:23;;;;;;;0.30;0.30;;;11.50;99.90;13.60;102826.00;;;;5029782;28;20292;-65
2023/04/03 12:57:55;;;;;;;0.50;0.50;;;11.50;99.90;14.50;102812.00;;;;5033854;28;20193;-67
2023/04/03 13:00:45;;;;;;;0.20;0.20;;;11.80;99.90;14.20;102813.00;;;;5032001;28;20224;-71
2023/04/03 13:07:33;;;;;;;0.40;0.40;;;11.90;99.90;14.70;102757.00;;;;5017795;28;20596;-68
2023/04/03 13:10:17;;;;;;;0.10;0.10;;;12.00;99.90;14.40;102718.00;;;;5022221;28;20182;-70
2023/04/03 13:13:09;;;;;;;2.30;1.23;;;11.80;99.90;14.00;102822.00;;;;5029448;28;20226;-65
2023/04/03 13:15:50;;;;;;;1.63;1.43;;;11.90;99.90;13.90;102819.00;;;;5034210;28;20191;-65
2023/04/03 13:18:54;;;;;;;0.30;0.30;;;11.70;99.90;14.30;102747.00;;;;5047378;28;20211;-65
2023/04/03 13:21:40;;;;;;;0.13;0.13;;;11.80;99.90;14.00;102791.00;;;;5029835;28;20282;-65
2023/04/03 13:24:35;;;;;;;0.67;0.40;;;11.70;99.90;14.50;102787.00;;;;5033584;28;20196;-64
2023/04/03 13:27:23;;;;;;;0.40;0.40;;;11.90;99.90;13.90;102795.00;;;;5016479;28;20650;-64
2023/04/03 13:30:20;;;;;;;0.53;0.53;;;11.80;99.90;13.40;102810.00;;;;5026495;28;20175;-65
2023/04/03 13:33:04;;;;;;;0.10;0.10;;;11.60;99.90;14.70;102789.00;;;;5000992;28;20239;-65
2023/04/03 13:36:07;;;;;;;0.20;0.20;;;11.70;99.90;15.00;102787.00;;;;5027783;28;20186;-65
2023/04/03 13:39:15;;;;;;;1.07;0.30;;;12.00;99.90;14.20;102739.00;;;;5026724;28;20708;-65
2023/04/03 13:42:40;;;;;;;0.30;0.30;;;11.90;99.90;13.80;102796.00;;;;5033300;28;20674;-65
2023/04/03 13:46:09;;;;;;;0.20;0.20;;;11.70;99.90;14.80;102787.00;;;;5006761;28;20221;-65
2023/04/03 13:49:28;;;;;;;0.30;0.30;;;11.80;99.90;12.50;102805.00;;;;5032615;28;20239;-65
2023/04/03 13:52:38;;;;;;;0.77;0.73;;;11.80;99.90;13.10;102804.00;;;;5034520;28;20237;-65
2023/04/03 13:55:39;;;;;;;0.37;0.37;;;11.40;99.90;13.70;102793.00;;;;5023222;28;20187;-65
2023/04/03 13:58:26;;;;;;;0.57;0.57;;;11.70;99.90;12.70;102745.00;;;;5022593;28;20183;-65
2023/04/03 14:01:09;;;;;;;0.47;0.47;;;11.40;99.90;12.50;102795.00;;;;5032689;28;20196;-65
2023/04/03 14:03:58;;;;;;;0.63;0.63;;;11.10;99.90;13.00;102718.00;;;;5033112;28;20644;-65
2023/04/03 14:07:17;;;;;;;0.27;0.27;;;11.20;99.90;14.00;102765.00;;;;5032900;28;20184;-65
2023/04/03 14:10:39;;;;;;;0.40;0.40;;;11.30;99.90;13.90;102757.00;;;;5024790;28;20551;-65
2023/04/03 14:14:07;;;;;;;0.30;0.30;;;11.40;99.90;14.50;102777.00;;;;5026700;28;20221;-65
2023/04/03 14:17:15;;;;;;;0.20;0.20;;;11.80;99.90;13.80;102775.00;;;;5016335;28;20204;-65
2023/04/03 14:20:29;;;;;;;0.20;0.20;;;12.10;99.90;13.60;102769.00;;;;5031665;28;20190;-65
2023/04/03 14:23:20;;;;;;;2.40;0.50;;;11.30;99.90;13.60;102770.00;;;;5031371;28;20200;-65
2023/04/03 14:26:00;;;;;;;0.63;0.37;;;11.50;99.90;12.30;102717.00;;;;5032957;28;20263;-65
2023/04/03 14:28:48;;;;;;;0.73;0.67;;;11.10;99.90;13.10;102769.00;;;;5030940;28;20215;-65
2023/04/03 14:31:52;;;;;;;0.60;0.50;;;11.20;99.90;13.50;102759.00;;;;5018431;28;20199;-65
2023/04/03 14:34:43;;;;;;;0.30;0.30;;;11.50;99.90;14.10;102758.00;;;;5057431;28;20270;-65
2023/04/03 14:37:16;;;;;;;0.20;0.20;;;11.40;99.90;14.10;102707.00;;;;5048303;28;20180;-65
2023/04/03 14:40:07;;;;;;;0.20;0.20;;;11.60;99.90;13.80;102758.00;;;;5031483;28;20199;-65
2023/04/03 14:42:54;;;;;;;0.10;0.10;;;11.20;99.90;12.60;102777.00;;;;5014745;28;20725;-65
2023/04/03 14:45:45;;;;;;;1.83;0.97;;;11.10;99.90;12.30;102767.00;;;;5062095;28;20657;-65
2023/04/03 14:48:22;;;;;;;3.30;3.13;;;10.90;99.90;12.40;102706.00;;;;5031752;28;20188;-65
2023/04/03 14:50:52;;;;;;;0.20;0.20;;;10.90;99.90;12.90;102770.00;;;;5023875;28;20184;-66
2023/04/03 14:53:44;;;;;;;0.20;0.20;;;10.90;99.90;13.40;102731.00;;;;5030639;28;20207;-66
2023/04/03 14:59:43;;;;;;;1.70;1.60;;;10.90;99.90;12.90;102707.00;;;;5040508;28;20244;-66
2023/04/03 15:02:36;;;;;;;0.40;0.40;;;10.90;99.90;13.50;102738.00;;;;5031492;28;20186;-65
2023/04/03 15:05:08;;;;;;;0.17;0.17;;;11.20;99.90;14.40;102721.00;;;;5011533;28;20643;-65
2023/04/03 15:08:10;;;;;;;1.30;0.63;;;11.40;99.90;13.20;102733.00;;;;5046744;28;20179;-68
2023/04/03 15:10:48;;;;;;;0.10;0.10;;;11.40;99.90;13.50;102679.00;;;;5054230;28;20645;-68
2023/04/03 15:13:46;;;;;;;0.10;0.10;;;11.30;99.90;13.40;102733.00;;;;5031114;28;20644;-68
2023/04/03 15:16:32;;;;;;;0.20;0.20;;;11.40;99.90;12.40;102682.00;;;;5030534;28;20234;-67
2023/04/03 15:19:21;;;;;;;5.83;1.13;;;11.10;99.90;13.80;102712.00;;;;5032982;28;20659;-63
2023/04/03 15:22:25;;;;;;;0.10;0.10;;;11.20;99.90;14.10;102723.00;;;;5036546;28;20604;-68
2023/04/03 15:24:51;;;;;;;0.73;0.37;;;11.40;99.90;12.20;102732.00;;;;5028933;28;20265;-63
2023/04/03 15:27:50;;;;;;;0.27;0.27;;;10.90;99.90;13.30;102720.00;;;;5036121;28;20633;-63
2023/04/03 15:30:31;;;;;;;11.13;6.33;;;11.00;99.90;13.60;102711.00;;;;5033831;28;20190;-67
2023/04/03 15:33:12;;;;;;;0.50;0.50;;;11.20;99.90;13.10;102718.00;;;;5028430;28;20207;-64
2023/04/03 15:36:23;;;;;;;0.20;0.20;;;11.00;99.90;14.30;102732.00;;;;5048065;28;20594;-64
2023/04/03 15:39:25;;;;;;;0.30;0.30;;;11.40;99.90;13.50;102725.00;;;;5049707;28;20186;-64
2023/04/03 15:41:59;;;;;;;0.10;0.10;;;11.20;99.90;13.80;102736.00;;;;5048692;28;20687;-65
2023/04/03 15:45:18;;;;;;;0.50;0.40;;;11.40;99.90;13.50;102739.00;;;;5050048;28;20187;-64
2023/04/03 15:48:03;;;;;;;0.30;0.30;;;11.50;99.90;13.50;102726.00;;;;5049195;28;20204;-64
2023/04/03 15:51:05;;;;;;;0.63;0.60;;;11.40;99.90;13.00;102733.00;;;;5049958;28;20187;-64
2023/04/03 15:54:00;;;;;;;0.93;0.50;;;11.20;99.90;13.30;102725.00;;;;5050115;28;20551;-64
2023/04/03 15:57:01;;;;;;;0.30;0.30;;;11.10;99.90;13.70;102725.00;;;;5051368;28;20235;-64
2023/04/03 15:59:52;;;;;;;0.27;0.27;;;11.40;99.90;13.60;102722.00;;;;5017985;28;20191;-65
2023/04/03 16:02:41;;;;;;;0.60;0.60;;;11.10;99.90;12.90;102720.00;;;;5033243;28;20200;-64
2023/04/03 16:05:21;;;;;;;0.10;0.10;;;11.10;99.90;13.30;102722.00;;;;5050912;28;20191;-65
2023/04/03 16:08:00;;;;;;;0.10;0.10;;;10.90;99.90;12.50;102742.00;;;;5034278;28;20598;-65
2023/04/03 16:10:32;;;;;;;0.50;0.50;;;10.80;99.90;13.70;102728.00;;;;5034353;28;20221;-65
2023/04/03 16:12:58;;;;;;;0.70;0.70;;;11.00;99.90;12.90;102734.00;;;;5035046;28;20217;-63
2023/04/03 16:15:53;;;;;;;0.10;0.10;;;11.10;99.90;13.50;102728.00;;;;5066880;28;20209;-63
2023/04/03 16:18:41;;;;;;;0.27;0.27;;;11.00;99.90;13.00;102748.00;;;;5049593;28;20197;-63
2023/04/03 16:21:31;;;;;;;0.60;0.60;;;10.90;99.90;12.50;102751.00;;;;5049246;28;20288;-63
2023/04/03 16:24:13;;;;;;;0.73;0.67;;;10.70;99.90;12.90;102759.00;;;;5050964;28;20728;-63
2023/04/03 16:26:59;;;;;;;0.20;0.20;;;10.70;99.90;12.70;102739.00;;;;5050332;28;20275;-63
2023/04/03 16:30:02;;;;;;;0.43;0.43;;;10.80;99.90;12.60;102752.00;;;;5047302;28;20636;-63
2023/04/03 16:33:21;;;;;;;1.07;1.00;;;10.70;99.90;12.00;102753.00;;;;5065414;28;20244;-63
2023/04/03 16:36:39;;;;;;;0.17;0.17;;;10.60;99.90;12.60;102755.00;;;;5048049;28;20195;-63
2023/04/03 16:39:43;;;;;;;0.63;0.63;;;10.60;99.90;13.60;102746.00;;;;5048065;28;20199;-63
2023/04/03 16:42:26;;;;;;;1.20;1.10;;;10.90;99.90;12.10;102735.00;;;;5031698;28;20232;-63
2023/04/03 16:45:15;;;;;;;0.30;0.30;;;10.80;99.90;12.90;102692.00;;;;5050789;28;20185;-63
2023/04/03 16:47:58;;;;;;;2.63;0.57;;;10.60;99.90;12.80;102715.00;;;;5049456;28;20185;-63
2023/04/03 16:50:53;;;;;;;0.20;0.20;;;10.70;99.90;12.40;102753.00;;;;5046805;28;20286;-63
2023/04/03 16:53:47;;;;;;;0.37;0.37;;;10.80;99.90;12.10;102761.00;;;;5017609;28;20567;-63
2023/04/03 16:56:43;;;;;;;0.43;0.43;;;10.70;99.90;12.30;102743.00;;;;5034611;28;20189;-63
2023/04/03 16:59:46;;;;;;;0.57;0.40;;;10.40;99.90;12.10;102753.00;;;;5026027;28;20189;-63
2023/04/03 17:02:31;;;;;;;2.80;1.80;;;10.50;99.90;12.20;102758.00;;;;5030489;28;20289;-63
2023/04/03 17:05:16;;;;;;;0.53;0.50;;;10.40;99.90;12.00;102764.00;;;;5033280;28;20210;-63
2023/04/03 17:07:48;;;;;;;0.40;0.40;;;10.30;99.90;12.50;102754.00;;;;5033166;28;20229;-63
2023/04/03 17:10:33;;;;;;;0.13;0.13;;;10.30;99.90;13.40;102755.00;;;;5034499;28;20186;-63
2023/04/03 17:13:07;;;;;;;0.20;0.20;;;10.50;99.90;12.30;102738.00;;;;5032829;28;20218;-63
2023/04/03 17:15:53;;;;;;;0.37;0.37;;;10.50;99.90;12.20;102777.00;;;;5034617;28;20183;-63
2023/04/03 17:18:28;;;;;;;0.10;0.10;;;10.20;99.90;12.30;102764.00;;;;5027265;28;20197;-63
2023/04/03 17:21:16;;;;;;;0.83;0.60;;;10.10;99.90;12.70;102761.00;;;;5033231;28;20183;-63
2023/04/03 17:23:50;;;;;;;0.57;0.30;;;10.20;99.90;12.00;102754.00;;;;5026785;28;20641;-63
2023/04/03 17:26:36;;;;;;;0.10;0.10;;;10.10;99.90;12.70;102755.00;;;;5016180;28;20194;-63
2023/04/03 17:29:19;;;;;;;1.13;0.20;;;10.10;99.90;11.80;102721.00;;;;5016742;28;20190;-63
2023/04/03 17:31:53;;;;;;;0.57;0.57;;;10.00;99.90;11.70;102766.00;;;;5036716;28;20603;-63
2023/04/03 17:34:42;;;;;;;0.40;0.37;;;9.80;99.90;12.70;102766.00;;;;5027275;28;20253;-63
2023/04/03 17:37:49;;;;;;;0.10;0.10;;;9.90;99.90;12.40;102772.00;;;;5030944;28;20183;-63
2023/04/03 17:40:53;;;;;;;0.40;0.40;;;10.00;99.90;11.50;102782.00;;;;5015669;28;20186;-65
2023/04/03 17:43:55;;;;;;;2.90;0.87;;;9.70;99.90;12.10;102787.00;;;;5028966;28;20303;-65
2023/04/03 17:47:14;;;;;;;0.13;0.13;;;9.80;99.90;12.70;102772.00;;;;5040612;28;20241;-65
2023/04/03 17:50:21;;;;;;;1.50;1.03;;;9.80;99.90;11.60;102767.00;;;;5035355;28;20189;-65
2023/04/03 17:53:43;;;;;;;0.10;0.10;;;9.90;99.90;12.10;102775.00;;;;5045178;28;20657;-65
2023/04/03 17:56:34;;;;;;;1.30;0.37;;;9.80;99.90;12.50;102771.00;;;;5032292;28;20185;-68
2023/04/03 17:59:43;;;;;;;0.47;0.47;;;9.80;99.90;12.20;102771.00;;;;4968591;28;20383;-66
2023/04/03 18:02:55;;;;;;;0.20;0.20;;;9.70;99.90;11.90;102789.00;;;;4998063;28;20221;-66
2023/04/03 18:09:34;;;;;;;0.17;0.17;;;9.50;99.90;12.00;102728.00;;;;4993259;28;20198;-66
2023/04/03 18:12:58;;;;;;;0.40;0.40;;;9.50;99.90;11.90;102793.00;;;;4981306;28;20221;-66
2023/04/03 18:16:20;;;;;;;0.40;0.40;;;9.50;99.90;11.60;102793.00;;;;4975704;28;20308;-66
2023/04/03 18:19:34;;;;;;;0.40;0.40;;;9.40;99.90;11.90;102791.00;;;;4980306;28;20415;-66
2023/04/03 18:22:32;;;;;;;0.10;0.10;;;9.30;99.90;12.10;102781.00;;;;4979958;28;20201;-66
2023/04/03 18:25:39;;;;;;;0.60;0.60;;;9.30;99.90;12.00;102788.00;;;;5008900;28;20676;-66
2023/04/03 18:28:52;;;;;;;0.23;0.23;;;9.30;99.90;11.60;102795.00;;;;4993116;28;20271;-66
2023/04/03 18:31:49;;;;;;;0.10;0.10;;;9.20;99.90;11.50;102805.00;;;;4978799;28;20235;-66
2023/04/03 18:35:15;;;;;;;1.13;1.13;;;9.20;99.90;12.30;102776.00;;;;4987933;28;20209;-66
2023/04/03 18:38:19;;;;;;;0.30;0.30;;;9.30;99.90;11.50;102804.00;;;;5045848;28;20196;-66
2023/04/03 18:41:25;;;;;;;1.27;1.17;;;9.20;99.90;11.20;102807.00;;;;5045644;28;20193;-66
2023/04/03 18:44:29;;;;;;;0.83;0.83;;;9.00;99.90;11.70;102797.00;;;;5047061;28;20205;-66
2023/04/03 18:47:30;;;;;;;0.10;0.10;;;9.10;99.90;11.80;102797.00;;;;5045581;28;20198;-66
2023/04/03 18:50:19;;;;;;;0.20;0.20;;;9.00;99.90;11.30;102800.00;;;;5039543;28;20191;-66
2023/04/03 18:53:17;;;;;;;0.10;0.10;;;8.80;99.90;10.70;102824.00;;;;5024344;28;20317;-66
2023/04/03 18:56:06;;;;;;;0.23;0.23;;;8.60;99.90;10.70;102821.00;;;;5028483;28;20194;-66
2023/04/03 18:58:58;;;;;;;3.07;2.83;;;8.60;99.90;10.30;102825.00;;;;5035923;28;20240;-66
2023/04/03 19:01:47;;;;;;;0.40;0.40;;;8.20;99.90;9.90;102807.00;;;;5035423;28;20191;-66
2023/04/03 19:04:31;;;;;;;1.30;0.93;;;8.20;99.90;10.30;102820.00;;;;4999637;28;20605;-66
2023/04/03 19:07:31;;;;;;;3.30;0.30;;;8.10;99.90;10.30;102836.00;;;;5035410;28;20195;-66
2023/04/03 19:10:40;;;;;;;0.10;0.10;;;8.10;99.90;9.90;102833.00;;;;5035128;28;20211;-66
2023/04/03 19:13:35;;;;;;;0.47;0.47;;;8.10;99.90;10.70;102823.00;;;;5034588;28;20280;-66
2023/04/03 19:16:39;;;;;;;0.40;0.40;;;8.10;99.90;10.50;102826.00;;;;5035279;28;20187;-66
2023/04/03 19:19:47;;;;;;;0.70;0.70;;;8.00;99.90;10.00;102835.00;;;;5034485;28;20179;-66
2023/04/03 19:22:58;;;;;;;0.70;0.33;;;7.90;99.90;9.40;102844.00;;;;5034110;28;20222;-66
2023/04/03 19:26:05;;;;;;;0.10;0.10;;;7.90;99.90;10.00;102844.00;;;;5034937;28;20172;-66
2023/04/03 19:28:47;;;;;;;0.50;0.50;;;7.90;99.90;10.10;102832.00;;;;5033050;28;20298;-66
2023/04/03 19:31:51;;;;;;;0.20;0.20;;;7.80;99.90;9.70;102857.00;;;;5027862;28;20555;-66
2023/04/03 19:34:45;;;;;;;0.37;0.37;;;7.80;99.90;9.60;102859.00;;;;5019545;28;20280;-66
2023/04/03 19:37:41;;;;;;;0.47;0.47;;;7.60;99.90;9.10;102867.00;;;;5023552;28;20228;-66
2023/04/03 19:40:42;;;;;;;1.33;1.30;;;7.40;99.90;9.40;102870.00;;;;5045399;28;20197;-67
2023/04/03 19:43:15;;;;;;;0.17;0.17;;;7.60;99.90;9.80;102815.00;;;;5034466;28;20213;-67
2023/04/03 19:46:06;;;;;;;0.93;0.60;;;7.60;99.90;9.20;102874.00;;;;5044288;28;20215;-67
2023/04/03 19:49:09;;;;;;;0.20;0.20;;;7.50;99.90;10.50;102852.00;;;;5046377;28;20593;-67
2023/04/03 19:51:49;;;;;;;0.23;0.23;;;7.60;99.90;10.50;102851.00;;;;5045942;28;20190;-67
2023/04/03 19:54:36;;;;;;;1.40;0.50;;;7.80;99.90;9.00;102873.00;;;;5045726;28;20190;-67
2023/04/03 19:57:22;;;;;;;0.10;0.10;;;7.50;99.90;9.50;102809.00;;;;5029479;28;20182;-67
2023/04/03 19:59:48;;;;;;;5.70;0.80;;;7.40;99.90;10.10;102849.00;;;;5045412;28;20244;-67
2023/04/03 20:02:23;;;;;;;0.10;0.10;;;7.50;99.90;9.60;102868.00;;;;5028936;28;20227;-67
2023/04/03 20:05:16;;;;;;;0.87;0.40;;;7.50;99.90;10.00;102853.00;;;;5044295;28;20244;-67